sensor_id;sensor_type;location;lat;lon;timestamp;temperature;humidity
27266;DHT22;14766;51.380;13.762;2024-03-02T00:00:16;11.40;73.60
27266;DHT22;14766;51.380;13.762;2024-03-02T00:02:45;11.40;73.80
27266;DHT22;14766;51.380;13.762;2024-03-02T00:05:18;11.40;73.90
27266;DHT22;14766;51.380;13.762;2024-03-02T00:07:51;11.40;74.00
27266;DHT22;14766;51.380;13.762;2024-03-02T00:10:24;11.40;74.10
27266;DHT22;14766;51.380;13.762;2024-03-02T00:12:56;11.40;74.00
27266;DHT22;14766;51.380;13.762;2024-03-02T00:15:42;11.40;74.00
27266;DHT22;14766;51.380;13.762;2024-03-02T00:18:18;11.40;74.30
27266;DHT22;14766;51.380;13.762;2024-03-02T00:20:45;11.40;74.20
27266;DHT22;14766;51.380;13.762;2024-03-02T00:23:16;11.30;74.30
27266;DHT22;14766;51.380;13.762;2024-03-02T00:25:47;11.40;74.40
27266;DHT22;14766;51.380;13.762;2024-03-02T00:28:22;11.40;74.50
27266;DHT22;14766;51.380;13.762;2024-03-02T00:33:44;11.40;74.60
27266;DHT22;14766;51.380;13.762;2024-03-02T00:36:16;11.40;74.70
27266;DHT22;14766;51.380;13.762;2024-03-02T00:38:54;11.40;74.70
27266;DHT22;14766;51.380;13.762;2024-03-02T00:44:03;11.40;74.80
27266;DHT22;14766;51.380;13.762;2024-03-02T00:46:35;11.40;74.70
27266;DHT22;14766;51.380;13.762;2024-03-02T00:49:04;11.40;74.60
27266;DHT22;14766;51.380;13.762;2024-03-02T00:51:32;11.40;74.60
27266;DHT22;14766;51.380;13.762;2024-03-02T00:54:02;11.40;74.50
27266;DHT22;14766;51.380;13.762;2024-03-02T00:56:32;11.50;75.50
27266;DHT22;14766;51.380;13.762;2024-03-02T00:58:59;11.50;74.60
27266;DHT22;14766;51.380;13.762;2024-03-02T01:01:26;11.50;74.70
27266;DHT22;14766;51.380;13.762;2024-03-02T01:03:54;11.50;74.60
27266;DHT22;14766;51.380;13.762;2024-03-02T01:06:21;11.50;74.70
27266;DHT22;14766;51.380;13.762;2024-03-02T01:08:51;11.50;74.90
27266;DHT22;14766;51.380;13.762;2024-03-02T01:11:20;11.50;74.80
27266;DHT22;14766;51.380;13.762;2024-03-02T01:13:50;11.50;74.80
27266;DHT22;14766;51.380;13.762;2024-03-02T01:16:18;11.50;74.90
27266;DHT22;14766;51.380;13.762;2024-03-02T01:18:45;11.50;74.90
27266;DHT22;14766;51.380;13.762;2024-03-02T01:21:13;11.50;75.00
27266;DHT22;14766;51.380;13.762;2024-03-02T01:23:40;11.50;75.10
27266;DHT22;14766;51.380;13.762;2024-03-02T01:26:07;11.50;75.10
27266;DHT22;14766;51.380;13.762;2024-03-02T01:28:34;11.50;75.20
27266;DHT22;14766;51.380;13.762;2024-03-02T01:31:01;11.50;75.20
27266;DHT22;14766;51.380;13.762;2024-03-02T01:33:31;11.50;75.10
27266;DHT22;14766;51.380;13.762;2024-03-02T01:35:58;11.50;75.30
27266;DHT22;14766;51.380;13.762;2024-03-02T01:38:25;11.50;75.40
27266;DHT22;14766;51.380;13.762;2024-03-02T01:40:53;11.50;76.40
27266;DHT22;14766;51.380;13.762;2024-03-02T01:43:22;11.50;75.50
27266;DHT22;14766;51.380;13.762;2024-03-02T01:45:50;11.50;75.50
27266;DHT22;14766;51.380;13.762;2024-03-02T01:48:17;11.60;75.60
27266;DHT22;14766;51.380;13.762;2024-03-02T01:50:44;11.60;75.60
27266;DHT22;14766;51.380;13.762;2024-03-02T01:53:11;11.60;75.50
27266;DHT22;14766;51.380;13.762;2024-03-02T01:55:38;11.60;75.50
27266;DHT22;14766;51.380;13.762;2024-03-02T01:58:05;11.60;75.50
27266;DHT22;14766;51.380;13.762;2024-03-02T02:00:34;11.60;75.50
27266;DHT22;14766;51.380;13.762;2024-03-02T02:03:03;11.60;75.50
27266;DHT22;14766;51.380;13.762;2024-03-02T02:05:30;11.60;75.40
27266;DHT22;14766;51.380;13.762;2024-03-02T02:07:58;11.60;75.30
27266;DHT22;14766;51.380;13.762;2024-03-02T02:10:26;11.60;75.30
27266;DHT22;14766;51.380;13.762;2024-03-02T02:12:54;11.70;75.30
27266;DHT22;14766;51.380;13.762;2024-03-02T02:15:29;11.70;75.30
27266;DHT22;14766;51.380;13.762;2024-03-02T02:17:57;11.70;75.40
27266;DHT22;14766;51.380;13.762;2024-03-02T02:20:26;11.70;75.30
27266;DHT22;14766;51.380;13.762;2024-03-02T02:23:04;11.70;75.20
27266;DHT22;14766;51.380;13.762;2024-03-02T02:25:32;11.70;75.20
27266;DHT22;14766;51.380;13.762;2024-03-02T02:27:59;11.70;75.30
27266;DHT22;14766;51.380;13.762;2024-03-02T02:30:31;11.70;75.20
27266;DHT22;14766;51.380;13.762;2024-03-02T02:32:59;11.70;75.20
27266;DHT22;14766;51.380;13.762;2024-03-02T02:35:26;11.70;75.20
27266;DHT22;14766;51.380;13.762;2024-03-02T02:37:55;11.70;75.20
27266;DHT22;14766;51.380;13.762;2024-03-02T02:40:22;11.70;75.20
27266;DHT22;14766;51.380;13.762;2024-03-02T02:42:50;11.70;76.10
27266;DHT22;14766;51.380;13.762;2024-03-02T02:45:19;11.70;75.30
27266;DHT22;14766;51.380;13.762;2024-03-02T02:47:47;11.70;75.30
27266;DHT22;14766;51.380;13.762;2024-03-02T02:50:14;11.70;75.30
27266;DHT22;14766;51.380;13.762;2024-03-02T02:52:42;11.70;75.30
27266;DHT22;14766;51.380;13.762;2024-03-02T02:55:11;11.70;75.30
27266;DHT22;14766;51.380;13.762;2024-03-02T02:57:42;11.70;75.30
27266;DHT22;14766;51.380;13.762;2024-03-02T03:00:14;11.70;75.30
27266;DHT22;14766;51.380;13.762;2024-03-02T03:02:48;11.70;75.20
27266;DHT22;14766;51.380;13.762;2024-03-02T03:05:18;11.70;75.40
27266;DHT22;14766;51.380;13.762;2024-03-02T03:07:46;11.70;75.30
27266;DHT22;14766;51.380;13.762;2024-03-02T03:10:16;11.70;75.30
27266;DHT22;14766;51.380;13.762;2024-03-02T03:12:43;11.70;75.30
27266;DHT22;14766;51.380;13.762;2024-03-02T03:15:11;11.70;75.40
27266;DHT22;14766;51.380;13.762;2024-03-02T03:17:40;11.70;75.50
27266;DHT22;14766;51.380;13.762;2024-03-02T03:20:07;11.70;75.40
27266;DHT22;14766;51.380;13.762;2024-03-02T03:22:38;11.70;75.40
27266;DHT22;14766;51.380;13.762;2024-03-02T03:25:06;11.70;75.40
27266;DHT22;14766;51.380;13.762;2024-03-02T03:27:36;11.70;75.40
27266;DHT22;14766;51.380;13.762;2024-03-02T03:30:04;11.70;75.40
27266;DHT22;14766;51.380;13.762;2024-03-02T03:32:33;11.70;75.40
27266;DHT22;14766;51.380;13.762;2024-03-02T03:35:01;11.70;75.30
27266;DHT22;14766;51.380;13.762;2024-03-02T03:37:30;11.70;75.30
27266;DHT22;14766;51.380;13.762;2024-03-02T03:40:03;11.70;75.40
27266;DHT22;14766;51.380;13.762;2024-03-02T03:42:33;11.70;75.30
27266;DHT22;14766;51.380;13.762;2024-03-02T03:45:00;11.70;75.40
27266;DHT22;14766;51.380;13.762;2024-03-02T03:47:28;11.70;75.40
27266;DHT22;14766;51.380;13.762;2024-03-02T03:49:55;11.70;75.40
27266;DHT22;14766;51.380;13.762;2024-03-02T03:52:22;11.70;75.40
27266;DHT22;14766;51.380;13.762;2024-03-02T03:54:49;11.70;75.50
27266;DHT22;14766;51.380;13.762;2024-03-02T03:57:17;11.70;75.50
27266;DHT22;14766;51.380;13.762;2024-03-02T03:59:44;11.70;75.40
27266;DHT22;14766;51.380;13.762;2024-03-02T04:02:11;11.70;75.40
27266;DHT22;14766;51.380;13.762;2024-03-02T04:04:40;11.70;75.50
27266;DHT22;14766;51.380;13.762;2024-03-02T04:07:07;11.70;75.50
27266;DHT22;14766;51.380;13.762;2024-03-02T04:09:34;11.70;75.50
27266;DHT22;14766;51.380;13.762;2024-03-02T04:12:01;11.60;75.50
27266;DHT22;14766;51.380;13.762;2024-03-02T04:14:28;11.60;75.50
27266;DHT22;14766;51.380;13.762;2024-03-02T04:16:55;11.60;75.50
27266;DHT22;14766;51.380;13.762;2024-03-02T04:19:22;11.60;75.50
27266;DHT22;14766;51.380;13.762;2024-03-02T04:21:50;11.60;75.60
27266;DHT22;14766;51.380;13.762;2024-03-02T04:24:17;11.60;75.50
27266;DHT22;14766;51.380;13.762;2024-03-02T04:26:44;11.70;75.70
27266;DHT22;14766;51.380;13.762;2024-03-02T04:29:12;11.60;75.60
27266;DHT22;14766;51.380;13.762;2024-03-02T04:31:39;11.60;75.60
27266;DHT22;14766;51.380;13.762;2024-03-02T04:34:06;11.60;75.60
27266;DHT22;14766;51.380;13.762;2024-03-02T04:36:33;11.60;75.50
27266;DHT22;14766;51.380;13.762;2024-03-02T04:39:00;11.60;75.50
27266;DHT22;14766;51.380;13.762;2024-03-02T04:41:27;11.60;75.50
27266;DHT22;14766;51.380;13.762;2024-03-02T04:43:54;11.60;75.50
27266;DHT22;14766;51.380;13.762;2024-03-02T04:46:21;11.60;75.50
27266;DHT22;14766;51.380;13.762;2024-03-02T04:48:49;11.60;75.50
27266;DHT22;14766;51.380;13.762;2024-03-02T04:51:21;11.60;75.50
27266;DHT22;14766;51.380;13.762;2024-03-02T04:53:49;11.60;75.50
27266;DHT22;14766;51.380;13.762;2024-03-02T04:56:16;11.60;75.40
27266;DHT22;14766;51.380;13.762;2024-03-02T04:58:58;11.60;75.50
27266;DHT22;14766;51.380;13.762;2024-03-02T05:01:25;11.60;75.40
27266;DHT22;14766;51.380;13.762;2024-03-02T05:03:52;11.60;75.50
27266;DHT22;14766;51.380;13.762;2024-03-02T05:06:19;11.60;75.60
27266;DHT22;14766;51.380;13.762;2024-03-02T05:08:48;11.50;75.60
27266;DHT22;14766;51.380;13.762;2024-03-02T05:11:16;11.50;75.60
27266;DHT22;14766;51.380;13.762;2024-03-02T05:14:06;11.50;75.70
27266;DHT22;14766;51.380;13.762;2024-03-02T05:16:34;11.50;75.80
27266;DHT22;14766;51.380;13.762;2024-03-02T05:19:02;11.50;75.90
27266;DHT22;14766;51.380;13.762;2024-03-02T05:21:29;11.50;75.90
27266;DHT22;14766;51.380;13.762;2024-03-02T05:23:56;11.50;76.00
27266;DHT22;14766;51.380;13.762;2024-03-02T05:26:23;11.50;76.00
27266;DHT22;14766;51.380;13.762;2024-03-02T05:28:50;11.50;76.00
27266;DHT22;14766;51.380;13.762;2024-03-02T05:31:18;11.50;76.10
27266;DHT22;14766;51.380;13.762;2024-03-02T05:33:46;11.50;76.10
27266;DHT22;14766;51.380;13.762;2024-03-02T05:36:13;11.50;76.00
27266;DHT22;14766;51.380;13.762;2024-03-02T05:38:40;11.50;76.00
27266;DHT22;14766;51.380;13.762;2024-03-02T05:41:08;11.50;76.10
27266;DHT22;14766;51.380;13.762;2024-03-02T05:43:35;11.50;76.20
27266;DHT22;14766;51.380;13.762;2024-03-02T05:46:03;11.50;76.20
27266;DHT22;14766;51.380;13.762;2024-03-02T05:48:31;11.50;76.20
27266;DHT22;14766;51.380;13.762;2024-03-02T05:50:58;11.50;76.20
27266;DHT22;14766;51.380;13.762;2024-03-02T05:53:25;11.50;76.20
27266;DHT22;14766;51.380;13.762;2024-03-02T05:55:53;11.50;76.20
27266;DHT22;14766;51.380;13.762;2024-03-02T05:58:23;11.50;76.30
27266;DHT22;14766;51.380;13.762;2024-03-02T06:00:52;11.50;76.40
27266;DHT22;14766;51.380;13.762;2024-03-02T06:03:19;11.50;76.30
27266;DHT22;14766;51.380;13.762;2024-03-02T06:05:47;11.50;76.30
27266;DHT22;14766;51.380;13.762;2024-03-02T06:08:16;11.50;76.20
27266;DHT22;14766;51.380;13.762;2024-03-02T06:10:43;11.50;76.20
27266;DHT22;14766;51.380;13.762;2024-03-02T06:13:10;11.50;76.20
27266;DHT22;14766;51.380;13.762;2024-03-02T06:15:37;11.50;76.20
27266;DHT22;14766;51.380;13.762;2024-03-02T06:18:05;11.50;76.20
27266;DHT22;14766;51.380;13.762;2024-03-02T06:20:34;11.50;76.20
27266;DHT22;14766;51.380;13.762;2024-03-02T06:23:04;11.50;76.30
27266;DHT22;14766;51.380;13.762;2024-03-02T06:25:31;11.50;76.20
27266;DHT22;14766;51.380;13.762;2024-03-02T06:27:58;11.50;76.30
27266;DHT22;14766;51.380;13.762;2024-03-02T06:30:25;11.50;76.30
27266;DHT22;14766;51.380;13.762;2024-03-02T06:32:52;11.50;76.40
27266;DHT22;14766;51.380;13.762;2024-03-02T06:35:19;11.50;76.40
27266;DHT22;14766;51.380;13.762;2024-03-02T06:37:46;11.50;76.30
27266;DHT22;14766;51.380;13.762;2024-03-02T06:40:13;11.50;76.30
27266;DHT22;14766;51.380;13.762;2024-03-02T06:42:41;11.50;76.30
27266;DHT22;14766;51.380;13.762;2024-03-02T06:45:08;11.50;76.40
27266;DHT22;14766;51.380;13.762;2024-03-02T06:47:36;11.50;76.20
27266;DHT22;14766;51.380;13.762;2024-03-02T06:50:03;11.50;76.20
27266;DHT22;14766;51.380;13.762;2024-03-02T06:52:31;11.50;76.30
27266;DHT22;14766;51.380;13.762;2024-03-02T06:54:59;11.50;76.40
27266;DHT22;14766;51.380;13.762;2024-03-02T06:57:27;11.50;76.30
27266;DHT22;14766;51.380;13.762;2024-03-02T06:59:54;11.50;76.30
27266;DHT22;14766;51.380;13.762;2024-03-02T07:02:25;11.50;76.20
27266;DHT22;14766;51.380;13.762;2024-03-02T07:04:54;11.50;76.30
27266;DHT22;14766;51.380;13.762;2024-03-02T07:07:21;11.50;76.30
27266;DHT22;14766;51.380;13.762;2024-03-02T07:09:49;11.50;76.30
27266;DHT22;14766;51.380;13.762;2024-03-02T07:12:16;11.60;76.30
27266;DHT22;14766;51.380;13.762;2024-03-02T07:14:44;11.60;76.40
27266;DHT22;14766;51.380;13.762;2024-03-02T07:17:31;11.60;76.50
27266;DHT22;14766;51.380;13.762;2024-03-02T07:19:58;11.50;76.40
27266;DHT22;14766;51.380;13.762;2024-03-02T07:22:25;11.50;76.30
27266;DHT22;14766;51.380;13.762;2024-03-02T07:24:52;11.50;76.30
27266;DHT22;14766;51.380;13.762;2024-03-02T07:27:20;11.50;76.50
27266;DHT22;14766;51.380;13.762;2024-03-02T07:29:47;11.50;77.60
27266;DHT22;14766;51.380;13.762;2024-03-02T07:32:14;11.50;76.80
27266;DHT22;14766;51.380;13.762;2024-03-02T07:34:41;11.50;77.60
27266;DHT22;14766;51.380;13.762;2024-03-02T07:37:09;11.50;77.00
27266;DHT22;14766;51.380;13.762;2024-03-02T07:39:36;11.50;77.10
27266;DHT22;14766;51.380;13.762;2024-03-02T07:42:04;11.50;77.10
27266;DHT22;14766;51.380;13.762;2024-03-02T07:44:32;11.50;77.10
27266;DHT22;14766;51.380;13.762;2024-03-02T07:46:59;11.50;77.20
27266;DHT22;14766;51.380;13.762;2024-03-02T07:49:26;11.60;77.40
27266;DHT22;14766;51.380;13.762;2024-03-02T07:51:53;11.60;77.30
27266;DHT22;14766;51.380;13.762;2024-03-02T07:54:22;11.60;77.40
27266;DHT22;14766;51.380;13.762;2024-03-02T07:56:49;11.60;77.40
27266;DHT22;14766;51.380;13.762;2024-03-02T07:59:16;11.60;77.50
27266;DHT22;14766;51.380;13.762;2024-03-02T08:01:44;11.60;77.50
27266;DHT22;14766;51.380;13.762;2024-03-02T08:04:11;11.60;77.60
27266;DHT22;14766;51.380;13.762;2024-03-02T08:06:38;11.60;77.60
27266;DHT22;14766;51.380;13.762;2024-03-02T08:09:05;11.70;77.60
27266;DHT22;14766;51.380;13.762;2024-03-02T08:11:36;11.70;77.60
27266;DHT22;14766;51.380;13.762;2024-03-02T08:14:06;11.70;77.60
27266;DHT22;14766;51.380;13.762;2024-03-02T08:16:34;11.80;77.80
27266;DHT22;14766;51.380;13.762;2024-03-02T08:19:01;11.70;77.80
27266;DHT22;14766;51.380;13.762;2024-03-02T08:21:30;11.80;77.80
27266;DHT22;14766;51.380;13.762;2024-03-02T08:23:59;11.80;78.10
27266;DHT22;14766;51.380;13.762;2024-03-02T08:26:26;11.80;78.10
27266;DHT22;14766;51.380;13.762;2024-03-02T08:28:56;11.80;78.00
27266;DHT22;14766;51.380;13.762;2024-03-02T08:31:23;11.80;78.10
27266;DHT22;14766;51.380;13.762;2024-03-02T08:33:51;11.80;78.10
27266;DHT22;14766;51.380;13.762;2024-03-02T08:36:20;11.90;78.20
27266;DHT22;14766;51.380;13.762;2024-03-02T08:38:49;11.90;78.20
27266;DHT22;14766;51.380;13.762;2024-03-02T08:41:16;11.90;78.10
27266;DHT22;14766;51.380;13.762;2024-03-02T08:43:44;11.90;78.10
27266;DHT22;14766;51.380;13.762;2024-03-02T08:46:11;11.90;78.00
27266;DHT22;14766;51.380;13.762;2024-03-02T08:48:39;11.90;77.90
27266;DHT22;14766;51.380;13.762;2024-03-02T08:51:06;11.90;78.00
27266;DHT22;14766;51.380;13.762;2024-03-02T08:53:35;12.00;78.00
27266;DHT22;14766;51.380;13.762;2024-03-02T08:56:02;12.00;78.00
27266;DHT22;14766;51.380;13.762;2024-03-02T08:58:32;12.00;78.00
27266;DHT22;14766;51.380;13.762;2024-03-02T09:00:59;12.00;78.00
27266;DHT22;14766;51.380;13.762;2024-03-02T09:03:27;12.00;78.00
27266;DHT22;14766;51.380;13.762;2024-03-02T09:05:54;12.00;78.00
27266;DHT22;14766;51.380;13.762;2024-03-02T09:08:21;12.00;78.00
27266;DHT22;14766;51.380;13.762;2024-03-02T09:10:49;12.10;78.10
27266;DHT22;14766;51.380;13.762;2024-03-02T09:13:16;12.10;78.20
27266;DHT22;14766;51.380;13.762;2024-03-02T09:15:44;12.10;78.20
27266;DHT22;14766;51.380;13.762;2024-03-02T09:18:11;12.10;78.20
27266;DHT22;14766;51.380;13.762;2024-03-02T09:20:39;12.20;78.20
27266;DHT22;14766;51.380;13.762;2024-03-02T09:23:06;12.20;78.20
27266;DHT22;14766;51.380;13.762;2024-03-02T09:25:33;12.20;78.30
27266;DHT22;14766;51.380;13.762;2024-03-02T09:28:01;12.20;78.30
27266;DHT22;14766;51.380;13.762;2024-03-02T09:30:31;12.30;78.40
27266;DHT22;14766;51.380;13.762;2024-03-02T09:32:58;12.30;78.30
27266;DHT22;14766;51.380;13.762;2024-03-02T09:35:28;12.30;78.30
27266;DHT22;14766;51.380;13.762;2024-03-02T09:37:56;12.40;78.40
27266;DHT22;14766;51.380;13.762;2024-03-02T09:40:23;12.40;79.10
27266;DHT22;14766;51.380;13.762;2024-03-02T09:42:50;12.40;78.40
27266;DHT22;14766;51.380;13.762;2024-03-02T09:45:24;12.40;78.30
27266;DHT22;14766;51.380;13.762;2024-03-02T09:47:51;12.40;78.50
27266;DHT22;14766;51.380;13.762;2024-03-02T09:50:18;12.50;78.50
27266;DHT22;14766;51.380;13.762;2024-03-02T09:52:49;12.50;78.60
27266;DHT22;14766;51.380;13.762;2024-03-02T09:55:19;12.50;78.70
27266;DHT22;14766;51.380;13.762;2024-03-02T09:57:46;12.50;78.70
27266;DHT22;14766;51.380;13.762;2024-03-02T10:00:15;12.50;78.50
27266;DHT22;14766;51.380;13.762;2024-03-02T10:02:43;12.60;78.50
27266;DHT22;14766;51.380;13.762;2024-03-02T10:05:10;12.60;78.40
27266;DHT22;14766;51.380;13.762;2024-03-02T10:07:40;12.60;78.40
27266;DHT22;14766;51.380;13.762;2024-03-02T10:10:15;12.60;78.20
27266;DHT22;14766;51.380;13.762;2024-03-02T10:12:42;12.70;78.10
27266;DHT22;14766;51.380;13.762;2024-03-02T10:15:10;12.70;78.10
27266;DHT22;14766;51.380;13.762;2024-03-02T10:17:37;12.80;78.00
27266;DHT22;14766;51.380;13.762;2024-03-02T10:20:22;12.80;77.90
27266;DHT22;14766;51.380;13.762;2024-03-02T10:22:50;12.90;77.80
27266;DHT22;14766;51.380;13.762;2024-03-02T10:25:31;13.00;77.70
27266;DHT22;14766;51.380;13.762;2024-03-02T10:28:16;13.00;77.70
27266;DHT22;14766;51.380;13.762;2024-03-02T10:30:48;13.10;77.70
27266;DHT22;14766;51.380;13.762;2024-03-02T10:33:17;13.20;77.50
27266;DHT22;14766;51.380;13.762;2024-03-02T10:35:45;13.20;77.50
27266;DHT22;14766;51.380;13.762;2024-03-02T10:38:12;13.30;77.50
27266;DHT22;14766;51.380;13.762;2024-03-02T10:40:39;13.40;77.30
27266;DHT22;14766;51.380;13.762;2024-03-02T10:43:07;13.50;77.40
27266;DHT22;14766;51.380;13.762;2024-03-02T10:45:34;13.60;76.90
27266;DHT22;14766;51.380;13.762;2024-03-02T10:48:02;13.70;76.60
27266;DHT22;14766;51.380;13.762;2024-03-02T10:50:30;13.90;74.70
27266;DHT22;14766;51.380;13.762;2024-03-02T10:52:57;14.00;73.50
27266;DHT22;14766;51.380;13.762;2024-03-02T10:55:25;14.20;73.70
27266;DHT22;14766;51.380;13.762;2024-03-02T10:57:55;14.30;73.70
27266;DHT22;14766;51.380;13.762;2024-03-02T11:00:26;14.40;72.50
27266;DHT22;14766;51.380;13.762;2024-03-02T11:03:05;14.60;71.90
27266;DHT22;14766;51.380;13.762;2024-03-02T11:05:36;14.80;71.80
27266;DHT22;14766;51.380;13.762;2024-03-02T11:08:08;15.00;71.30
27266;DHT22;14766;51.380;13.762;2024-03-02T11:10:51;15.30;71.40
27266;DHT22;14766;51.380;13.762;2024-03-02T11:13:24;15.60;71.30
27266;DHT22;14766;51.380;13.762;2024-03-02T11:15:55;15.90;70.30
27266;DHT22;14766;51.380;13.762;2024-03-02T11:18:23;16.20;67.40
27266;DHT22;14766;51.380;13.762;2024-03-02T11:20:51;16.50;69.40
27266;DHT22;14766;51.380;13.762;2024-03-02T11:23:19;16.80;67.40
27266;DHT22;14766;51.380;13.762;2024-03-02T11:26:17;17.10;65.80
27266;DHT22;14766;51.380;13.762;2024-03-02T11:28:46;17.30;63.20
27266;DHT22;14766;51.380;13.762;2024-03-02T11:31:13;17.50;61.80
27266;DHT22;14766;51.380;13.762;2024-03-02T11:33:43;17.80;62.20
27266;DHT22;14766;51.380;13.762;2024-03-02T11:36:11;17.90;60.60
27266;DHT22;14766;51.380;13.762;2024-03-02T11:38:39;18.00;59.20
27266;DHT22;14766;51.380;13.762;2024-03-02T11:41:10;18.10;56.90
27266;DHT22;14766;51.380;13.762;2024-03-02T11:43:38;18.00;57.50
27266;DHT22;14766;51.380;13.762;2024-03-02T11:46:10;17.90;58.40
27266;DHT22;14766;51.380;13.762;2024-03-02T11:48:39;17.80;56.90
27266;DHT22;14766;51.380;13.762;2024-03-02T11:51:07;17.70;55.30
27266;DHT22;14766;51.380;13.762;2024-03-02T11:53:35;17.60;54.80
27266;DHT22;14766;51.380;13.762;2024-03-02T11:56:06;17.50;56.50
27266;DHT22;14766;51.380;13.762;2024-03-02T11:58:37;17.40;57.50
27266;DHT22;14766;51.380;13.762;2024-03-02T12:01:06;17.30;57.50
27266;DHT22;14766;51.380;13.762;2024-03-02T12:03:34;17.20;57.20
27266;DHT22;14766;51.380;13.762;2024-03-02T12:06:02;17.20;57.30
27266;DHT22;14766;51.380;13.762;2024-03-02T12:08:30;17.10;57.70
27266;DHT22;14766;51.380;13.762;2024-03-02T12:10:59;17.00;58.10
27266;DHT22;14766;51.380;13.762;2024-03-02T12:13:32;17.00;58.20
27266;DHT22;14766;51.380;13.762;2024-03-02T12:16:00;16.90;58.30
27266;DHT22;14766;51.380;13.762;2024-03-02T12:18:28;16.80;58.80
27266;DHT22;14766;51.380;13.762;2024-03-02T12:20:57;16.70;58.20
27266;DHT22;14766;51.380;13.762;2024-03-02T12:23:25;16.60;58.40
27266;DHT22;14766;51.380;13.762;2024-03-02T12:25:53;16.50;59.00
27266;DHT22;14766;51.380;13.762;2024-03-02T12:28:20;16.50;58.60
27266;DHT22;14766;51.380;13.762;2024-03-02T12:30:48;16.40;58.50
27266;DHT22;14766;51.380;13.762;2024-03-02T12:33:16;16.30;58.80
27266;DHT22;14766;51.380;13.762;2024-03-02T12:35:44;16.10;59.10
27266;DHT22;14766;51.380;13.762;2024-03-02T12:38:11;16.00;59.30
27266;DHT22;14766;51.380;13.762;2024-03-02T12:40:38;16.00;59.50
27266;DHT22;14766;51.380;13.762;2024-03-02T12:43:06;15.90;59.90
27266;DHT22;14766;51.380;13.762;2024-03-02T12:45:34;15.80;59.30
27266;DHT22;14766;51.380;13.762;2024-03-02T12:48:02;15.70;59.70
27266;DHT22;14766;51.380;13.762;2024-03-02T12:50:31;15.60;59.90
27266;DHT22;14766;51.380;13.762;2024-03-02T12:52:59;15.60;59.60
27266;DHT22;14766;51.380;13.762;2024-03-02T12:55:26;15.50;59.80
27266;DHT22;14766;51.380;13.762;2024-03-02T12:57:55;15.50;59.90
27266;DHT22;14766;51.380;13.762;2024-03-02T13:00:22;15.50;60.30
27266;DHT22;14766;51.380;13.762;2024-03-02T13:02:51;15.40;60.30
27266;DHT22;14766;51.380;13.762;2024-03-02T13:05:19;15.40;60.40
27266;DHT22;14766;51.380;13.762;2024-03-02T13:07:48;15.40;60.00
27266;DHT22;14766;51.380;13.762;2024-03-02T13:10:17;15.40;60.50
27266;DHT22;14766;51.380;13.762;2024-03-02T13:12:45;15.40;60.70
27266;DHT22;14766;51.380;13.762;2024-03-02T13:15:13;15.40;60.20
27266;DHT22;14766;51.380;13.762;2024-03-02T13:17:47;15.40;60.40
27266;DHT22;14766;51.380;13.762;2024-03-02T13:20:15;15.40;60.50
27266;DHT22;14766;51.380;13.762;2024-03-02T13:22:42;15.40;60.60
27266;DHT22;14766;51.380;13.762;2024-03-02T13:25:09;15.40;60.50
27266;DHT22;14766;51.380;13.762;2024-03-02T13:27:39;15.40;59.70
27266;DHT22;14766;51.380;13.762;2024-03-02T13:30:06;15.30;60.20
27266;DHT22;14766;51.380;13.762;2024-03-02T13:32:36;15.40;60.60
27266;DHT22;14766;51.380;13.762;2024-03-02T13:35:05;15.40;60.30
27266;DHT22;14766;51.380;13.762;2024-03-02T13:37:32;15.30;60.00
27266;DHT22;14766;51.380;13.762;2024-03-02T13:40:00;15.40;60.60
27266;DHT22;14766;51.380;13.762;2024-03-02T13:42:27;15.40;60.60
27266;DHT22;14766;51.380;13.762;2024-03-02T13:44:54;15.40;60.70
27266;DHT22;14766;51.380;13.762;2024-03-02T13:47:21;15.40;60.20
27266;DHT22;14766;51.380;13.762;2024-03-02T13:49:49;15.40;60.20
27266;DHT22;14766;51.380;13.762;2024-03-02T13:52:16;15.50;60.50
27266;DHT22;14766;51.380;13.762;2024-03-02T13:54:48;15.50;60.60
27266;DHT22;14766;51.380;13.762;2024-03-02T13:57:15;15.50;59.60
27266;DHT22;14766;51.380;13.762;2024-03-02T13:59:44;15.50;60.10
27266;DHT22;14766;51.380;13.762;2024-03-02T14:02:12;15.50;60.40
27266;DHT22;14766;51.380;13.762;2024-03-02T14:04:39;15.50;60.20
27266;DHT22;14766;51.380;13.762;2024-03-02T14:07:07;15.50;60.80
27266;DHT22;14766;51.380;13.762;2024-03-02T14:09:35;15.50;61.00
27266;DHT22;14766;51.380;13.762;2024-03-02T14:12:04;15.60;60.80
27266;DHT22;14766;51.380;13.762;2024-03-02T14:14:32;15.60;60.60
27266;DHT22;14766;51.380;13.762;2024-03-02T14:16:59;15.50;59.90
27266;DHT22;14766;51.380;13.762;2024-03-02T14:19:30;15.50;60.50
27266;DHT22;14766;51.380;13.762;2024-03-02T14:21:58;15.60;60.70
27266;DHT22;14766;51.380;13.762;2024-03-02T14:24:27;15.50;60.80
27266;DHT22;14766;51.380;13.762;2024-03-02T14:26:56;15.50;60.50
27266;DHT22;14766;51.380;13.762;2024-03-02T14:29:45;15.50;60.30
27266;DHT22;14766;51.380;13.762;2024-03-02T14:32:12;15.50;60.10
27266;DHT22;14766;51.380;13.762;2024-03-02T14:34:40;15.50;60.00
27266;DHT22;14766;51.380;13.762;2024-03-02T14:37:07;15.50;60.00
27266;DHT22;14766;51.380;13.762;2024-03-02T14:39:34;15.50;59.70
27266;DHT22;14766;51.380;13.762;2024-03-02T14:42:03;15.40;59.80
27266;DHT22;14766;51.380;13.762;2024-03-02T14:44:31;15.40;60.00
27266;DHT22;14766;51.380;13.762;2024-03-02T14:46:58;15.30;59.50
27266;DHT22;14766;51.380;13.762;2024-03-02T14:49:26;15.30;60.10
27266;DHT22;14766;51.380;13.762;2024-03-02T14:51:53;15.30;60.20
27266;DHT22;14766;51.380;13.762;2024-03-02T14:54:21;15.20;60.00
27266;DHT22;14766;51.380;13.762;2024-03-02T14:56:48;15.20;59.80
27266;DHT22;14766;51.380;13.762;2024-03-02T14:59:16;15.20;59.80
27266;DHT22;14766;51.380;13.762;2024-03-02T15:01:44;15.10;59.30
27266;DHT22;14766;51.380;13.762;2024-03-02T15:04:11;15.10;59.60
27266;DHT22;14766;51.380;13.762;2024-03-02T15:06:39;15.10;59.50
27266;DHT22;14766;51.380;13.762;2024-03-02T15:09:06;15.10;59.80
27266;DHT22;14766;51.380;13.762;2024-03-02T15:11:33;15.10;60.00
27266;DHT22;14766;51.380;13.762;2024-03-02T15:14:00;15.10;60.00
27266;DHT22;14766;51.380;13.762;2024-03-02T15:16:27;15.00;59.90
27266;DHT22;14766;51.380;13.762;2024-03-02T15:18:55;15.00;59.90
27266;DHT22;14766;51.380;13.762;2024-03-02T15:21:22;15.00;60.00
27266;DHT22;14766;51.380;13.762;2024-03-02T15:23:49;15.00;60.10
27266;DHT22;14766;51.380;13.762;2024-03-02T15:26:17;15.00;59.80
27266;DHT22;14766;51.380;13.762;2024-03-02T15:28:44;14.90;59.70